createdAt,value
2018-05-10T00:01:40.143Z,18.70
2018-05-10T00:04:13.793Z,18.70
2018-05-10T00:06:47.533Z,18.70
2018-05-10T00:09:21.336Z,18.70
2018-05-10T00:11:55.016Z,18.70
2018-05-10T00:14:28.764Z,18.80
2018-05-10T00:17:03.323Z,18.90
2018-05-10T00:19:37.910Z,19.00
2018-05-10T00:22:12.388Z,19.00
2018-05-10T00:24:46.237Z,18.90
2018-05-10T00:27:20.026Z,18.90
2018-05-10T00:29:53.658Z,18.90
2018-05-10T00:32:27.411Z,18.80
2018-05-10T00:35:01.174Z,18.80
2018-05-10T00:37:34.896Z,18.80
2018-05-10T00:40:08.616Z,18.80
2018-05-10T00:42:42.330Z,18.90
2018-05-10T00:45:15.956Z,18.90
2018-05-10T00:47:49.717Z,18.80
2018-05-10T00:50:24.352Z,18.50
2018-05-10T00:52:58.112Z,18.50
2018-05-10T00:55:31.954Z,18.50
2018-05-10T00:58:06.388Z,18.40
2018-05-10T01:00:40.149Z,18.40
2018-05-10T01:03:13.828Z,18.50
2018-05-10T01:05:47.629Z,18.50
2018-05-10T01:08:21.446Z,18.40
2018-05-10T01:10:55.144Z,18.30
2018-05-10T01:13:28.700Z,18.10
2018-05-10T01:16:02.519Z,18.10
2018-05-10T01:18:36.249Z,18.10
2018-05-10T01:21:10.048Z,18.20
2018-05-10T01:23:44.576Z,18.10
2018-05-10T01:26:18.323Z,18.10
2018-05-10T01:28:52.107Z,18.00
2018-05-10T01:31:25.900Z,18.00
2018-05-10T01:33:59.609Z,18.00
2018-05-10T01:36:33.383Z,18.10
2018-05-10T01:39:07.000Z,18.10
2018-05-10T01:41:40.598Z,18.10
2018-05-10T01:44:14.444Z,18.00
2018-05-10T01:46:48.232Z,18.10
2018-05-10T01:49:21.882Z,18.00
2018-05-10T01:51:55.741Z,18.00
2018-05-10T01:54:29.481Z,17.90
2018-05-10T01:57:03.328Z,17.90
2018-05-10T01:59:37.092Z,17.90
2018-05-10T02:02:11.519Z,17.90
2018-05-10T02:04:45.151Z,17.80
2018-05-10T02:07:18.968Z,17.90
2018-05-10T02:09:53.472Z,17.90
2018-05-10T02:12:27.207Z,17.90
2018-05-10T02:15:01.041Z,17.90
2018-05-10T02:17:35.401Z,17.70
2018-05-10T02:20:09.242Z,17.70
2018-05-10T02:22:43.056Z,17.60
2018-05-10T02:25:17.647Z,17.60
2018-05-10T02:27:51.408Z,17.60
2018-05-10T02:30:25.061Z,17.60
2018-05-10T02:32:58.889Z,17.60
2018-05-10T02:35:32.539Z,17.50
2018-05-10T02:38:06.255Z,17.40
2018-05-10T02:40:39.916Z,17.30
2018-05-10T02:43:13.708Z,17.20
2018-05-10T02:45:47.393Z,17.20
2018-05-10T02:48:21.990Z,17.30
2018-05-10T02:50:55.777Z,17.20
2018-05-10T02:53:30.255Z,17.30
2018-05-10T02:56:04.666Z,17.20
2018-05-10T02:58:38.412Z,17.10
2018-05-10T03:01:12.866Z,17.10
2018-05-10T03:03:46.524Z,17.10
2018-05-10T03:06:20.452Z,17.00
2018-05-10T03:08:54.281Z,17.00
2018-05-10T03:11:28.108Z,17.00
2018-05-10T03:14:02.517Z,17.00
2018-05-10T03:16:36.225Z,17.00
2018-05-10T03:19:09.909Z,17.00
2018-05-10T03:21:43.494Z,17.00
2018-05-10T03:24:17.241Z,17.10
2018-05-10T03:26:51.013Z,17.10
2018-05-10T03:29:24.732Z,17.10
2018-05-10T03:31:58.526Z,17.10
2018-05-10T03:34:32.356Z,17.10
2018-05-10T03:37:06.145Z,17.10
2018-05-10T03:39:39.940Z,17.20
2018-05-10T03:42:13.611Z,17.20
2018-05-10T03:44:48.298Z,17.20
2018-05-10T03:47:22.927Z,17.30
2018-05-10T03:49:56.608Z,17.20
2018-05-10T03:52:31.276Z,17.30
2018-05-10T03:55:05.033Z,17.20
2018-05-10T03:57:39.566Z,17.30
2018-05-10T04:00:13.308Z,17.30
2018-05-10T04:06:11.867Z,17.20
2018-05-10T04:08:57.467Z,17.20
2018-05-10T04:11:31.087Z,17.20
2018-05-10T04:14:04.866Z,17.10
2018-05-10T04:16:38.481Z,17.10
2018-05-10T04:19:12.190Z,17.20
2018-05-10T04:21:46.854Z,17.10
2018-05-10T04:24:20.396Z,17.00
2018-05-10T04:26:54.741Z,17.10
2018-05-10T04:29:28.511Z,17.10
2018-05-10T04:32:02.162Z,17.10
2018-05-10T04:34:35.976Z,17.20
2018-05-10T04:37:09.748Z,17.30
2018-05-10T04:39:43.404Z,17.40
2018-05-10T04:42:17.242Z,17.40
2018-05-10T04:44:51.808Z,17.40
2018-05-10T04:47:25.613Z,17.40
2018-05-10T04:49:59.385Z,17.50
2018-05-10T04:52:33.194Z,17.60
2018-05-10T04:55:07.008Z,17.60
2018-05-10T04:57:40.598Z,17.70
2018-05-10T05:00:14.309Z,17.80
2018-05-10T05:02:48.714Z,18.20
2018-05-10T05:05:22.422Z,18.20
2018-05-10T05:07:56.153Z,18.30
2018-05-10T05:10:29.905Z,18.40
2018-05-10T05:13:03.475Z,18.50
2018-05-10T05:15:37.238Z,18.70
2018-05-10T05:18:11.061Z,18.70
2018-05-10T05:20:44.896Z,18.80
2018-05-10T05:23:19.472Z,18.60
2018-05-10T05:25:53.133Z,18.60
2018-05-10T05:28:26.960Z,18.60
2018-05-10T05:31:01.548Z,18.90
2018-05-10T05:33:35.473Z,18.90
2018-05-10T05:36:09.870Z,18.90
2018-05-10T05:38:43.564Z,18.90
2018-05-10T05:41:17.269Z,18.90
2018-05-10T05:43:51.819Z,19.10
2018-05-10T05:46:25.573Z,19.00
2018-05-10T05:48:59.251Z,19.10
2018-05-10T05:51:32.927Z,19.20
2018-05-10T05:54:06.779Z,19.30
2018-05-10T05:56:40.444Z,19.20
2018-05-10T05:59:14.397Z,19.30
2018-05-10T06:01:48.098Z,19.30
2018-05-10T06:04:21.931Z,19.30
2018-05-10T06:06:56.454Z,19.30
2018-05-10T06:09:30.267Z,19.20
2018-05-10T06:12:04.885Z,19.20
2018-05-10T06:14:39.434Z,19.20
2018-05-10T06:17:13.209Z,19.20
2018-05-10T06:19:46.745Z,19.30
2018-05-10T06:22:20.471Z,19.40
2018-05-10T06:24:54.288Z,19.50
2018-05-10T06:27:28.831Z,19.50
2018-05-10T06:30:02.633Z,19.50
2018-05-10T06:32:36.413Z,19.50
2018-05-10T06:35:10.071Z,19.40
2018-05-10T06:37:43.741Z,19.40
2018-05-10T06:40:17.449Z,19.20
2018-05-10T06:42:51.130Z,19.20
2018-05-10T06:45:24.904Z,19.30
2018-05-10T06:47:58.647Z,19.20
2018-05-10T06:50:32.464Z,19.20
2018-05-10T06:53:06.114Z,19.10
2018-05-10T06:55:39.860Z,19.10
2018-05-10T06:58:13.499Z,19.30
2018-05-10T07:00:47.089Z,19.50
2018-05-10T07:03:20.910Z,19.50
2018-05-10T07:05:54.612Z,19.60
2018-05-10T07:08:28.435Z,19.70
2018-05-10T07:11:02.939Z,19.90
2018-05-10T07:13:36.646Z,19.90
2018-05-10T07:16:11.260Z,19.90
2018-05-10T07:18:45.091Z,19.90
2018-05-10T07:21:18.852Z,19.90
2018-05-10T07:23:52.579Z,19.90
2018-05-10T07:26:26.307Z,20.10
2018-05-10T07:29:00.009Z,20.00
2018-05-10T07:31:34.448Z,20.10
2018-05-10T07:34:08.147Z,20.00
2018-05-10T07:36:42.726Z,20.20
2018-05-10T07:39:16.567Z,20.20
2018-05-10T07:41:50.445Z,20.40
2018-05-10T07:44:24.182Z,20.60
2018-05-10T07:46:57.921Z,20.70
2018-05-10T07:49:32.379Z,21.00
2018-05-10T07:52:06.002Z,20.90
2018-05-10T07:54:39.695Z,20.40
2018-05-10T07:57:13.244Z,20.30
2018-05-10T07:59:47.108Z,20.20
2018-05-10T08:02:21.635Z,20.10
2018-05-10T08:04:55.478Z,20.10
2018-05-10T08:07:30.113Z,20.50
2018-05-10T08:10:04.624Z,20.50
2018-05-10T08:12:38.331Z,20.50
2018-05-10T08:15:12.768Z,20.50
2018-05-10T08:17:46.603Z,20.40
2018-05-10T08:20:21.245Z,20.30
2018-05-10T08:22:55.055Z,20.30
2018-05-10T08:25:28.824Z,20.00
2018-05-10T08:28:02.451Z,19.90
2018-05-10T08:30:36.261Z,20.10
2018-05-10T08:33:09.980Z,20.10
2018-05-10T08:35:43.683Z,20.10
2018-05-10T08:38:17.511Z,20.10
2018-05-10T08:40:51.348Z,20.20
2018-05-10T08:43:25.032Z,20.40
2018-05-10T08:45:58.810Z,20.60
2018-05-10T08:48:32.565Z,20.60
2018-05-10T08:51:07.101Z,20.60
2018-05-10T08:53:41.035Z,20.60
2018-05-10T08:56:14.773Z,20.60
2018-05-10T08:58:48.480Z,20.50
2018-05-10T09:01:23.108Z,20.20
2018-05-10T09:03:56.847Z,20.20
2018-05-10T09:06:30.512Z,20.00
2018-05-10T09:09:04.813Z,19.90
2018-05-10T09:11:38.608Z,19.90
2018-05-10T09:14:12.375Z,19.70
2018-05-10T09:16:46.094Z,19.60
2018-05-10T09:19:19.902Z,19.50
2018-05-10T09:21:53.628Z,19.20
2018-05-10T09:24:27.543Z,19.10
2018-05-10T09:27:01.366Z,19.00
2018-05-10T09:29:35.249Z,19.00
2018-05-10T09:32:09.836Z,18.80
2018-05-10T09:34:43.635Z,18.70
2018-05-10T09:37:17.508Z,18.80
2018-05-10T09:39:51.236Z,18.40
2018-05-10T09:42:24.973Z,18.40
2018-05-10T09:44:58.789Z,18.60
2018-05-10T09:47:32.428Z,18.70
2018-05-10T09:50:07.017Z,18.70
2018-05-10T09:52:40.691Z,18.70
2018-05-10T09:55:14.522Z,18.70
2018-05-10T09:57:48.313Z,18.70
2018-05-10T10:00:27.824Z,18.50
2018-05-10T10:03:01.657Z,18.50
2018-05-10T10:05:35.477Z,18.60
2018-05-10T10:08:09.148Z,18.80
2018-05-10T10:10:42.986Z,18.70
2018-05-10T10:13:17.601Z,18.80
2018-05-10T10:15:51.365Z,18.80
2018-05-10T10:18:25.108Z,19.00
2018-05-10T10:20:59.613Z,19.00
2018-05-10T10:23:33.160Z,19.10
2018-05-10T10:26:07.643Z,19.30
2018-05-10T10:28:41.481Z,19.30
2018-05-10T10:31:15.072Z,19.40
2018-05-10T10:33:48.901Z,19.20
2018-05-10T10:36:22.683Z,19.30
2018-05-10T10:38:56.431Z,19.30
2018-05-10T10:41:30.052Z,19.30
2018-05-10T10:44:04.397Z,19.30
2018-05-10T10:46:38.135Z,19.30
2018-05-10T10:49:11.917Z,19.00
2018-05-10T10:51:45.800Z,18.90
2018-05-10T10:54:19.624Z,19.00
2018-05-10T10:56:53.386Z,18.90
2018-05-10T10:59:28.028Z,19.20
2018-05-10T11:02:01.761Z,19.20
2018-05-10T11:04:35.588Z,19.00
2018-05-10T11:07:10.178Z,19.30
2018-05-10T11:09:44.053Z,19.30
2018-05-10T11:12:17.771Z,19.40
2018-05-10T11:14:51.537Z,19.60
2018-05-10T11:17:25.929Z,19.90
2018-05-10T11:20:00.480Z,20.10
2018-05-10T11:22:34.234Z,20.00
2018-05-10T11:25:08.712Z,20.20
2018-05-10T11:27:42.830Z,20.10
2018-05-10T11:30:16.533Z,20.20
2018-05-10T11:32:51.149Z,19.90
2018-05-10T11:35:24.899Z,19.90
2018-05-10T11:37:59.680Z,19.90
2018-05-10T11:40:33.817Z,19.70
2018-05-10T11:43:07.497Z,19.80
2018-05-10T11:45:41.272Z,19.70
2018-05-10T11:48:15.834Z,19.80
2018-05-10T11:50:49.698Z,19.80
2018-05-10T11:53:23.399Z,19.90
2018-05-10T11:55:57.083Z,19.80
2018-05-10T11:58:30.764Z,19.80
2018-05-10T12:01:05.203Z,19.90
2018-05-10T12:03:39.032Z,19.90
2018-05-10T12:06:12.821Z,19.80
2018-05-10T12:08:46.613Z,19.80
2018-05-10T12:11:20.444Z,19.50
2018-05-10T12:13:54.140Z,19.50
2018-05-10T12:16:27.868Z,19.60
2018-05-10T12:19:02.378Z,19.50
2018-05-10T12:21:36.227Z,19.50
2018-05-10T12:24:10.341Z,19.60
2018-05-10T12:26:44.798Z,19.70
2018-05-10T12:29:18.419Z,19.70
2018-05-10T12:31:52.288Z,19.80
2018-05-10T12:34:26.109Z,19.80
2018-05-10T12:36:59.876Z,19.60
2018-05-10T12:39:33.711Z,19.70
2018-05-10T12:42:07.489Z,20.00
2018-05-10T12:44:41.209Z,20.00
2018-05-10T12:47:15.016Z,20.20
2018-05-10T12:49:48.820Z,20.20
2018-05-10T12:52:22.589Z,20.40
2018-05-10T12:54:56.401Z,20.40
2018-05-10T12:57:30.093Z,20.20
2018-05-10T13:00:03.945Z,20.30
2018-05-10T13:02:37.735Z,20.20
2018-05-10T13:05:12.282Z,20.20
2018-05-10T13:07:46.035Z,19.90
2018-05-10T13:10:19.797Z,19.90
2018-05-10T13:12:54.360Z,19.70
2018-05-10T13:15:28.231Z,19.70
2018-05-10T13:18:01.975Z,19.80
2018-05-10T13:20:35.631Z,19.80
2018-05-10T13:23:10.194Z,19.50
2018-05-10T13:25:43.913Z,19.50
2018-05-10T13:28:17.694Z,19.30
2018-05-10T13:30:51.380Z,19.30
2018-05-10T13:33:25.123Z,19.30
2018-05-10T13:35:58.909Z,19.20
2018-05-10T13:38:32.774Z,19.10
2018-05-10T13:41:07.330Z,19.10
2018-05-10T13:43:41.135Z,19.10
2018-05-10T13:46:14.779Z,19.20
2018-05-10T13:48:48.455Z,19.00
2018-05-10T13:51:22.312Z,18.90
2018-05-10T13:53:56.132Z,18.90
2018-05-10T13:56:30.693Z,18.70
2018-05-10T13:59:04.306Z,18.70
2018-05-10T14:01:38.088Z,18.50
2018-05-10T14:04:11.810Z,18.50
2018-05-10T14:06:45.546Z,18.50
2018-05-10T14:09:19.344Z,18.00
2018-05-10T14:11:53.139Z,17.70
2018-05-10T14:14:27.002Z,17.70
2018-05-10T14:17:00.850Z,17.60
2018-05-10T14:19:34.575Z,17.70
2018-05-10T14:22:08.443Z,17.90
2018-05-10T14:24:42.305Z,17.80
2018-05-10T14:27:16.124Z,17.70
2018-05-10T14:29:50.073Z,17.10
2018-05-10T14:32:24.673Z,16.80
2018-05-10T14:34:58.433Z,16.80
2018-05-10T14:37:32.147Z,16.50
2018-05-10T14:40:06.768Z,16.20
2018-05-10T14:42:40.497Z,16.20
2018-05-10T14:45:15.035Z,15.90
2018-05-10T14:47:48.770Z,15.90
2018-05-10T14:50:22.749Z,15.50
2018-05-10T14:52:56.484Z,15.50
2018-05-10T14:55:30.274Z,15.40
2018-05-10T14:58:04.332Z,15.50
2018-05-10T15:00:38.805Z,15.60
2018-05-10T15:03:13.359Z,15.10
2018-05-10T15:05:47.098Z,15.10
2018-05-10T15:08:21.171Z,14.80
2018-05-10T15:10:54.968Z,15.00
2018-05-10T15:13:28.840Z,14.60
2018-05-10T15:16:03.316Z,14.10
2018-05-10T15:18:37.179Z,14.10
2018-05-10T15:21:10.950Z,13.90
2018-05-10T15:23:44.836Z,13.50
2018-05-10T15:26:18.597Z,13.40
2018-05-10T15:28:52.377Z,13.30
2018-05-10T15:31:26.125Z,13.20
2018-05-10T15:34:00.016Z,13.30
2018-05-10T15:36:33.784Z,13.20
2018-05-10T15:39:08.345Z,13.20
2018-05-10T15:41:42.049Z,13.10
2018-05-10T15:44:15.825Z,13.30
2018-05-10T15:46:49.683Z,13.30
2018-05-10T15:49:23.557Z,13.40
2018-05-10T15:51:57.347Z,13.30
2018-05-10T15:54:31.109Z,13.30
2018-05-10T15:57:04.820Z,13.40
2018-05-10T15:59:38.582Z,13.50
2018-05-10T16:02:12.401Z,13.50
2018-05-10T16:04:46.868Z,13.60
2018-05-10T16:07:21.401Z,13.60
2018-05-10T16:09:55.170Z,13.60
2018-05-10T16:12:28.931Z,13.70
2018-05-10T16:15:02.681Z,13.70
2018-05-10T16:17:36.496Z,13.70
2018-05-10T16:20:10.219Z,13.70
2018-05-10T16:22:44.098Z,13.70
2018-05-10T16:25:18.606Z,13.70
2018-05-10T16:27:52.426Z,13.80
2018-05-10T16:30:26.152Z,13.80
2018-05-10T16:33:00.029Z,13.90
2018-05-10T16:35:33.734Z,13.80
2018-05-10T16:38:07.627Z,13.90
2018-05-10T16:40:41.393Z,14.00
2018-05-10T16:43:15.091Z,14.00
2018-05-10T16:45:48.962Z,14.00
2018-05-10T16:48:23.644Z,14.10
2018-05-10T16:50:57.511Z,14.10
2018-05-10T16:53:31.963Z,14.00
2018-05-10T16:56:05.850Z,14.00
2018-05-10T16:58:39.696Z,13.90
2018-05-10T17:01:13.410Z,13.90
2018-05-10T17:03:47.135Z,13.90
2018-05-10T17:06:21.660Z,14.00
2018-05-10T17:08:55.372Z,14.00
2018-05-10T17:11:29.193Z,14.00
2018-05-10T17:14:02.972Z,14.20
2018-05-10T17:16:36.624Z,14.20
2018-05-10T17:19:10.458Z,14.10
2018-05-10T17:21:44.290Z,14.00
2018-05-10T17:24:19.248Z,14.00
2018-05-10T17:26:53.805Z,14.00
2018-05-10T17:29:28.291Z,14.10
2018-05-10T17:32:01.937Z,14.10
2018-05-10T17:34:35.780Z,14.10
2018-05-10T17:37:10.342Z,14.20
2018-05-10T17:39:44.164Z,14.20
2018-05-10T17:42:18.786Z,14.40
2018-05-10T17:44:54.244Z,14.40
2018-05-10T17:47:27.905Z,14.30
2018-05-10T17:50:01.684Z,14.40
2018-05-10T17:52:35.534Z,14.40
2018-05-10T17:55:09.372Z,14.50
2018-05-10T17:57:43.176Z,14.50
2018-05-10T18:00:17.044Z,14.50
2018-05-10T18:02:51.568Z,14.40
2018-05-10T18:05:25.413Z,14.40
2018-05-10T18:07:59.118Z,14.40
2018-05-10T18:10:32.866Z,14.40
2018-05-10T18:13:06.721Z,14.40
2018-05-10T18:15:40.468Z,14.50
2018-05-10T18:18:15.032Z,14.50
2018-05-10T18:20:48.960Z,14.50
2018-05-10T18:23:22.742Z,14.40
2018-05-10T18:25:57.204Z,14.30
2018-05-10T18:28:30.960Z,14.30
2018-05-10T18:31:04.814Z,14.30
2018-05-10T18:33:38.593Z,14.30
2018-05-10T18:36:13.209Z,14.20
2018-05-10T18:38:46.864Z,14.20
2018-05-10T18:41:20.668Z,14.20
2018-05-10T18:43:54.456Z,14.20
2018-05-10T18:46:28.190Z,14.20
2018-05-10T18:49:02.037Z,14.20
2018-05-10T18:51:36.660Z,14.20
2018-05-10T18:54:10.430Z,14.20
2018-05-10T18:56:44.076Z,14.20
2018-05-10T18:59:17.866Z,14.20
2018-05-10T19:01:52.411Z,14.20
2018-05-10T19:04:26.195Z,14.20
2018-05-10T19:07:00.800Z,14.30
2018-05-10T19:09:35.420Z,14.20
2018-05-10T19:12:09.116Z,14.20
2018-05-10T19:14:42.916Z,14.20
2018-05-10T19:17:16.545Z,14.30
2018-05-10T19:19:50.241Z,14.30
2018-05-10T19:22:24.000Z,14.30
2018-05-10T19:24:58.566Z,14.30
2018-05-10T19:27:32.380Z,14.30
2018-05-10T19:30:06.903Z,14.40
2018-05-10T19:32:40.512Z,14.30
2018-05-10T19:35:14.311Z,14.40
2018-05-10T19:37:48.843Z,14.30
2018-05-10T19:40:22.637Z,14.30
2018-05-10T19:42:56.428Z,14.40
2018-05-10T19:45:30.972Z,14.40
2018-05-10T19:48:04.689Z,14.40
2018-05-10T19:50:38.372Z,14.40
2018-05-10T19:53:12.176Z,14.30
2018-05-10T19:55:46.568Z,14.30
2018-05-10T19:58:20.307Z,14.30
2018-05-10T20:00:54.729Z,14.30
2018-05-10T20:03:28.384Z,14.30
2018-05-10T20:06:02.193Z,14.30
2018-05-10T20:08:36.064Z,14.30
2018-05-10T20:11:09.732Z,14.30
2018-05-10T20:13:43.737Z,14.40
2018-05-10T20:16:18.251Z,14.40
2018-05-10T20:18:52.154Z,14.30
2018-05-10T20:21:25.943Z,14.40
2018-05-10T20:24:00.597Z,14.40
2018-05-10T20:26:34.273Z,14.30
2018-05-10T20:29:08.124Z,14.40
2018-05-10T20:31:41.889Z,14.40
2018-05-10T20:34:16.423Z,14.30
2018-05-10T20:36:50.916Z,14.30
2018-05-10T20:39:24.625Z,14.30
2018-05-10T20:41:58.452Z,14.30
2018-05-10T20:44:32.282Z,14.30
2018-05-10T20:47:06.056Z,14.30
2018-05-10T20:49:39.862Z,14.30
2018-05-10T20:52:13.521Z,14.30
2018-05-10T20:54:47.223Z,14.30
2018-05-10T20:57:21.024Z,14.30
2018-05-10T20:59:54.724Z,14.30
2018-05-10T21:02:28.403Z,14.30
2018-05-10T21:05:02.936Z,14.30
2018-05-10T21:07:36.628Z,14.30
2018-05-10T21:10:10.331Z,14.30
2018-05-10T21:12:44.914Z,14.40
2018-05-10T21:15:19.505Z,14.40
2018-05-10T21:17:54.042Z,14.40
2018-05-10T21:20:28.599Z,14.30
2018-05-10T21:23:02.267Z,14.30
2018-05-10T21:25:36.096Z,14.30
2018-05-10T21:28:09.808Z,14.30
2018-05-10T21:30:44.337Z,14.30
2018-05-10T21:33:18.209Z,14.20
2018-05-10T21:35:52.637Z,14.20
2018-05-10T21:38:26.389Z,14.20
2018-05-10T21:41:00.290Z,14.20
2018-05-10T21:43:34.045Z,14.20
2018-05-10T21:46:07.728Z,14.20
2018-05-10T21:48:42.282Z,14.20
2018-05-10T21:51:16.052Z,14.20
2018-05-10T21:53:49.913Z,14.20
2018-05-10T21:56:23.685Z,14.20
2018-05-10T21:58:57.463Z,14.10
2018-05-10T22:01:31.364Z,14.10
2018-05-10T22:04:05.156Z,14.10
2018-05-10T22:06:38.911Z,14.10
2018-05-10T22:09:12.848Z,14.10
2018-05-10T22:11:46.703Z,14.20
2018-05-10T22:14:21.173Z,14.20
2018-05-10T22:16:54.832Z,14.20
2018-05-10T22:19:28.732Z,14.20
2018-05-10T22:22:02.351Z,14.20
2018-05-10T22:24:35.953Z,14.20
2018-05-10T22:27:10.387Z,14.20
2018-05-10T22:29:44.020Z,14.20
2018-05-10T22:32:17.835Z,14.20
2018-05-10T22:34:51.610Z,14.20
2018-05-10T22:37:25.189Z,14.10
2018-05-10T22:39:59.729Z,14.10
2018-05-10T22:42:34.116Z,14.10
2018-05-10T22:45:07.777Z,14.10
2018-05-10T22:47:41.609Z,14.00
2018-05-10T22:50:15.367Z,13.90
2018-05-10T22:52:49.152Z,14.00
2018-05-10T22:55:23.793Z,14.00
2018-05-10T22:57:58.425Z,14.10
2018-05-10T23:00:32.936Z,14.10
2018-05-10T23:03:07.548Z,14.10
2018-05-10T23:05:41.465Z,14.10
2018-05-10T23:08:15.168Z,14.10
2018-05-10T23:10:48.973Z,14.10
2018-05-10T23:13:22.667Z,14.10
2018-05-10T23:15:56.408Z,14.10
2018-05-10T23:18:30.281Z,14.10
2018-05-10T23:21:04.104Z,14.10
2018-05-10T23:23:37.909Z,14.00
2018-05-10T23:26:11.703Z,14.10
2018-05-10T23:28:45.531Z,14.10
2018-05-10T23:31:19.467Z,14.00
2018-05-10T23:33:53.237Z,13.90
2018-05-10T23:36:27.017Z,13.90
2018-05-10T23:39:00.911Z,13.80
2018-05-10T23:41:34.636Z,13.70
2018-05-10T23:44:08.384Z,13.60
2018-05-10T23:46:42.145Z,13.60
2018-05-10T23:49:15.905Z,13.60
2018-05-10T23:51:50.292Z,13.60
2018-05-10T23:54:24.668Z,13.60
2018-05-10T23:56:58.320Z,13.50
2018-05-10T23:59:32.808Z,13.60
